createdAt,value
2019-05-22T00:01:25.249Z,17.20
2019-05-22T00:03:58.748Z,14.00
2019-05-22T00:06:29.135Z,14.68
2019-05-22T00:08:58.640Z,14.43
2019-05-22T00:11:29.322Z,14.15
2019-05-22T00:13:59.735Z,14.70
2019-05-22T00:16:30.117Z,13.00
2019-05-22T00:18:59.113Z,14.00
2019-05-22T00:21:28.168Z,12.85
2019-05-22T00:23:57.278Z,13.85
2019-05-22T00:26:26.735Z,13.13
2019-05-22T00:28:56.443Z,13.40
2019-05-22T00:31:25.455Z,13.58
2019-05-22T00:33:55.763Z,13.68
2019-05-22T00:36:24.489Z,13.95
2019-05-22T00:38:54.690Z,13.60
2019-05-22T00:41:24.512Z,13.93
2019-05-22T00:43:53.318Z,12.85
2019-05-22T00:46:23.800Z,14.25
2019-05-22T00:48:54.407Z,13.70
2019-05-22T00:51:36.867Z,13.22
2019-05-22T00:54:25.390Z,13.85
2019-05-22T00:56:56.359Z,13.58
2019-05-22T00:59:42.443Z,12.35
2019-05-22T01:02:14.216Z,12.85
2019-05-22T01:04:43.445Z,14.05
2019-05-22T01:07:18.351Z,11.88
2019-05-22T01:09:52.618Z,11.97
2019-05-22T01:12:28.989Z,11.48
2019-05-22T01:15:04.435Z,11.75
2019-05-22T01:17:36.571Z,10.28
2019-05-22T01:20:07.909Z,10.80
2019-05-22T01:22:37.143Z,11.43
2019-05-22T01:25:06.776Z,11.57
2019-05-22T01:27:36.573Z,12.23
2019-05-22T01:30:08.529Z,11.53
2019-05-22T01:32:43.160Z,11.70
2019-05-22T01:35:13.858Z,10.78
2019-05-22T01:37:44.352Z,11.15
2019-05-22T01:40:20.080Z,12.15
2019-05-22T01:42:51.927Z,10.68
2019-05-22T01:45:22.418Z,10.65
2019-05-22T01:47:54.083Z,11.40
2019-05-22T01:50:47.987Z,11.05
2019-05-22T01:53:20.159Z,10.00
2019-05-22T01:55:51.829Z,10.13
2019-05-22T01:58:21.741Z,10.10
2019-05-22T02:00:55.629Z,10.32
2019-05-22T02:05:55.169Z,10.20
2019-05-22T02:08:28.144Z,10.03
2019-05-22T02:11:00.027Z,10.53
2019-05-22T02:13:42.154Z,10.88
2019-05-22T02:16:11.448Z,10.80
2019-05-22T02:18:41.983Z,10.70
2019-05-22T02:21:12.400Z,11.22
2019-05-22T02:23:42.883Z,10.48
2019-05-22T02:26:13.480Z,10.25
2019-05-22T02:28:43.368Z,11.12
2019-05-22T02:31:15.076Z,9.60
2019-05-22T02:34:01.394Z,9.73
2019-05-22T02:36:30.820Z,9.53
2019-05-22T02:39:01.167Z,9.28
2019-05-22T02:41:34.468Z,10.48
2019-05-22T02:44:03.382Z,9.73
2019-05-22T02:46:32.099Z,9.30
2019-05-22T02:49:02.002Z,9.43
2019-05-22T02:51:30.936Z,10.13
2019-05-22T02:54:00.175Z,9.65
2019-05-22T02:56:29.323Z,10.25
2019-05-22T02:58:58.826Z,8.70
2019-05-22T03:01:28.111Z,8.58
2019-05-22T03:03:56.942Z,8.05
2019-05-22T03:06:26.147Z,9.80
2019-05-22T03:08:58.391Z,7.97
2019-05-22T03:11:32.871Z,8.20
2019-05-22T03:14:03.446Z,8.10
2019-05-22T03:16:44.392Z,7.55
2019-05-22T03:19:15.358Z,8.10
2019-05-22T03:21:44.455Z,7.75
2019-05-22T03:24:13.293Z,8.18
2019-05-22T03:26:48.525Z,7.85
2019-05-22T03:29:17.922Z,7.47
2019-05-22T03:31:46.661Z,6.90
2019-05-22T03:34:16.462Z,7.05
2019-05-22T03:36:45.773Z,7.83
2019-05-22T03:39:16.136Z,7.28
2019-05-22T03:41:45.564Z,7.58
2019-05-22T03:44:15.858Z,6.70
2019-05-22T03:46:48.554Z,7.60
2019-05-22T03:49:30.000Z,7.03
2019-05-22T03:51:52.157Z,7.33
2019-05-22T03:54:21.874Z,7.15
2019-05-22T03:56:50.584Z,6.62
2019-05-22T03:59:20.099Z,7.05
2019-05-22T04:01:48.990Z,7.00
2019-05-22T04:04:21.325Z,6.45
2019-05-22T04:06:52.411Z,7.00
2019-05-22T04:09:23.468Z,7.62
2019-05-22T04:11:53.666Z,6.58
2019-05-22T04:14:25.348Z,6.62
2019-05-22T04:16:54.807Z,7.40
2019-05-22T04:19:23.545Z,7.20
2019-05-22T04:21:52.529Z,8.25
2019-05-22T04:24:21.554Z,7.33
2019-05-22T04:26:50.316Z,7.25
2019-05-22T04:29:19.522Z,7.33
2019-05-22T04:31:52.260Z,8.03
2019-05-22T04:34:21.081Z,6.70
2019-05-22T04:36:50.887Z,8.18
2019-05-22T04:39:25.844Z,7.28
2019-05-22T04:41:57.277Z,8.33
2019-05-22T04:44:26.512Z,7.20
2019-05-22T04:46:56.115Z,7.05
2019-05-22T04:49:25.433Z,8.28
2019-05-22T04:51:54.740Z,6.97
2019-05-22T04:54:23.766Z,7.40
2019-05-22T04:56:53.518Z,7.75
2019-05-22T04:59:22.909Z,7.47
2019-05-22T05:01:51.642Z,7.85
2019-05-22T05:04:20.373Z,7.72
2019-05-22T05:06:49.952Z,7.15
2019-05-22T05:09:19.638Z,8.23
2019-05-22T05:11:48.550Z,7.78
2019-05-22T05:14:17.475Z,8.03
2019-05-22T05:16:46.912Z,7.70
2019-05-22T05:19:15.599Z,6.45
2019-05-22T05:21:44.481Z,6.72
2019-05-22T05:24:13.401Z,7.72
2019-05-22T05:26:43.499Z,7.12
2019-05-22T05:29:26.229Z,7.70
2019-05-22T05:31:55.264Z,7.47
2019-05-22T05:34:35.896Z,7.55
2019-05-22T05:37:06.923Z,8.40
2019-05-22T05:39:40.068Z,8.05
2019-05-22T05:42:09.056Z,7.83
2019-05-22T05:44:38.325Z,7.90
2019-05-22T05:47:07.450Z,7.65
2019-05-22T05:49:36.723Z,8.10
2019-05-22T05:52:07.228Z,7.55
2019-05-22T05:54:36.523Z,7.67
2019-05-22T05:57:38.492Z,7.35
2019-05-22T06:00:11.072Z,8.18
2019-05-22T06:02:54.046Z,9.00
2019-05-22T06:05:10.901Z,8.13
2019-05-22T06:07:40.267Z,8.70
2019-05-22T06:10:30.077Z,8.08
2019-05-22T06:12:58.970Z,8.28
2019-05-22T06:15:47.573Z,9.13
2019-05-22T06:18:18.601Z,8.35
2019-05-22T06:21:02.731Z,8.35
2019-05-22T06:23:27.473Z,8.33
2019-05-22T06:25:58.701Z,8.45
2019-05-22T06:28:30.742Z,21.55
2019-05-22T06:31:01.941Z,11.33
2019-05-22T06:33:34.980Z,9.70
2019-05-22T06:36:09.851Z,9.58
2019-05-22T06:38:50.390Z,9.28
2019-05-22T06:41:20.188Z,10.25
2019-05-22T06:44:11.404Z,7.72
2019-05-22T06:46:45.523Z,10.15
2019-05-22T06:49:31.953Z,9.75
2019-05-22T06:52:00.956Z,8.83
2019-05-22T06:54:29.691Z,8.35
2019-05-22T06:56:58.406Z,8.53
2019-05-22T06:59:27.456Z,8.98
2019-05-22T07:02:01.273Z,9.25
2019-05-22T07:04:29.168Z,9.78
2019-05-22T07:06:58.745Z,8.98
2019-05-22T07:09:29.276Z,8.83
2019-05-22T07:11:58.576Z,8.78
2019-05-22T07:14:27.311Z,9.45
2019-05-22T07:16:56.120Z,9.25
2019-05-22T07:19:25.244Z,9.63
2019-05-22T07:21:54.675Z,10.70
2019-05-22T07:24:23.976Z,10.53
2019-05-22T07:26:53.543Z,10.98
2019-05-22T07:29:22.660Z,9.80
2019-05-22T07:31:51.964Z,9.45
2019-05-22T07:34:20.872Z,10.60
2019-05-22T07:36:49.613Z,8.75
2019-05-22T07:39:18.447Z,9.65
2019-05-22T07:41:47.191Z,9.93
2019-05-22T07:44:15.934Z,8.78
2019-05-22T07:46:45.086Z,8.80
2019-05-22T07:49:15.039Z,7.92
2019-05-22T07:51:54.037Z,7.60
2019-05-22T07:54:16.097Z,8.50
2019-05-22T07:56:44.875Z,7.58
2019-05-22T07:59:13.709Z,7.75
2019-05-22T08:01:42.739Z,7.53
2019-05-22T08:04:12.898Z,7.53
2019-05-22T08:06:41.689Z,7.85
2019-05-22T08:09:10.923Z,7.37
2019-05-22T08:11:39.923Z,8.65
2019-05-22T08:14:11.227Z,8.55
2019-05-22T08:16:40.231Z,7.83
2019-05-22T08:19:09.840Z,6.95
2019-05-22T08:21:38.736Z,6.72
2019-05-22T08:24:07.981Z,7.25
2019-05-22T08:26:53.246Z,6.92
2019-05-22T08:29:08.747Z,6.33
2019-05-22T08:31:40.489Z,6.03
2019-05-22T08:34:09.540Z,6.65
2019-05-22T08:36:38.908Z,6.10
2019-05-22T08:39:08.821Z,6.33
2019-05-22T08:41:43.502Z,6.00
2019-05-22T08:44:16.917Z,7.15
2019-05-22T08:46:44.996Z,7.40
2019-05-22T08:49:14.237Z,8.05
2019-05-22T08:51:43.018Z,7.05
2019-05-22T08:54:12.891Z,6.85
2019-05-22T08:56:44.630Z,7.12
2019-05-22T08:59:19.659Z,7.35
2019-05-22T09:04:31.221Z,6.78
2019-05-22T09:07:00.346Z,6.70
2019-05-22T09:09:29.282Z,7.05
2019-05-22T09:11:58.305Z,6.35
2019-05-22T09:14:27.334Z,6.15
2019-05-22T09:16:56.159Z,5.65
2019-05-22T09:19:24.891Z,6.25
2019-05-22T09:21:53.811Z,5.40
2019-05-22T09:24:26.021Z,4.97
2019-05-22T09:26:55.151Z,4.40
2019-05-22T09:29:23.987Z,3.98
2019-05-22T09:31:52.734Z,4.40
2019-05-22T09:34:21.713Z,4.80
2019-05-22T09:36:50.428Z,4.30
2019-05-22T09:39:19.845Z,4.00
2019-05-22T09:41:48.522Z,4.28
2019-05-22T09:44:17.463Z,4.45
2019-05-22T09:46:46.475Z,4.42
2019-05-22T09:49:15.557Z,3.85
2019-05-22T09:51:44.354Z,3.90
2019-05-22T09:54:13.792Z,3.98
2019-05-22T09:56:42.659Z,4.45
2019-05-22T09:59:11.401Z,4.10
2019-05-22T10:01:40.118Z,4.62
2019-05-22T10:04:09.424Z,4.33
2019-05-22T10:06:38.176Z,4.50
2019-05-22T10:09:08.496Z,4.62
2019-05-22T10:11:37.695Z,4.33
2019-05-22T10:14:07.305Z,5.42
2019-05-22T10:16:36.136Z,5.15
2019-05-22T10:19:05.226Z,4.92
2019-05-22T10:21:34.264Z,4.70
2019-05-22T10:24:03.459Z,4.83
2019-05-22T10:26:32.477Z,4.40
2019-05-22T10:29:01.331Z,5.20
2019-05-22T10:31:30.835Z,4.72
2019-05-22T10:34:00.630Z,6.45
2019-05-22T10:36:29.793Z,5.47
2019-05-22T10:38:58.723Z,4.87
2019-05-22T10:41:27.724Z,4.70
2019-05-22T10:43:56.639Z,4.92
2019-05-22T10:46:25.915Z,4.22
2019-05-22T10:48:54.711Z,4.50
2019-05-22T10:51:23.500Z,4.30
2019-05-22T10:53:52.309Z,4.78
2019-05-22T10:56:21.085Z,5.62
2019-05-22T10:58:50.211Z,5.00
2019-05-22T11:01:19.129Z,5.15
2019-05-22T11:03:47.923Z,5.83
2019-05-22T11:06:16.714Z,4.70
2019-05-22T11:08:46.285Z,4.58
2019-05-22T11:11:16.216Z,4.58
2019-05-22T11:14:00.131Z,4.37
2019-05-22T11:16:15.670Z,4.00
2019-05-22T11:18:44.500Z,4.40
2019-05-22T11:21:13.689Z,5.03
2019-05-22T11:23:51.824Z,5.42
2019-05-22T11:26:12.931Z,4.72
2019-05-22T11:28:43.421Z,4.55
2019-05-22T11:31:13.330Z,3.98
2019-05-22T11:33:42.369Z,5.50
2019-05-22T11:36:13.096Z,4.33
2019-05-22T11:38:41.998Z,5.22
2019-05-22T11:41:11.309Z,4.45
2019-05-22T11:43:40.651Z,7.42
2019-05-22T11:46:09.532Z,4.83
2019-05-22T11:48:38.428Z,5.45
2019-05-22T11:51:07.327Z,4.60
2019-05-22T11:53:36.856Z,5.00
2019-05-22T11:56:06.012Z,4.40
2019-05-22T11:58:34.753Z,4.78
2019-05-22T12:01:03.772Z,3.92
2019-05-22T12:03:34.177Z,4.12
2019-05-22T12:06:04.478Z,4.40
2019-05-22T12:08:33.305Z,4.75
2019-05-22T12:11:03.485Z,5.20
2019-05-22T12:13:32.674Z,5.20
2019-05-22T12:16:04.240Z,5.50
2019-05-22T12:18:33.220Z,4.78
2019-05-22T12:21:02.973Z,4.85
2019-05-22T12:23:32.767Z,6.17
2019-05-22T12:26:01.508Z,16.52
2019-05-22T12:28:30.351Z,11.25
2019-05-22T12:30:59.261Z,13.03
2019-05-22T12:33:28.386Z,11.33
2019-05-22T12:35:57.989Z,12.90
2019-05-22T12:38:27.783Z,10.18
2019-05-22T12:40:57.714Z,12.75
2019-05-22T12:43:30.612Z,13.48
2019-05-22T12:46:00.124Z,12.55
2019-05-22T12:48:29.834Z,12.63
2019-05-22T12:50:59.427Z,13.43
2019-05-22T12:53:29.568Z,13.15
2019-05-22T12:55:59.905Z,12.23
2019-05-22T12:58:28.973Z,12.55
2019-05-22T13:00:58.981Z,12.53
2019-05-22T13:03:28.527Z,15.98
2019-05-22T13:05:58.097Z,11.70
2019-05-22T13:08:27.184Z,9.38
2019-05-22T13:10:57.709Z,9.15
2019-05-22T13:13:26.922Z,10.90
2019-05-22T13:15:58.028Z,10.50
2019-05-22T13:18:27.990Z,10.55
2019-05-22T13:20:57.375Z,9.75
2019-05-22T13:23:30.705Z,9.08
2019-05-22T13:25:59.453Z,9.38
2019-05-22T13:28:30.410Z,8.30
2019-05-22T13:31:00.729Z,8.10
2019-05-22T13:33:31.238Z,7.75
2019-05-22T13:36:00.526Z,7.00
2019-05-22T13:38:29.324Z,7.85
2019-05-22T13:40:58.283Z,8.18
2019-05-22T13:43:27.546Z,9.05
2019-05-22T13:45:56.396Z,9.30
2019-05-22T13:48:25.736Z,8.63
2019-05-22T13:50:56.076Z,11.08
2019-05-22T13:53:25.333Z,10.10
2019-05-22T13:55:54.013Z,9.30
2019-05-22T13:58:25.239Z,7.67
2019-05-22T14:00:53.988Z,8.05
2019-05-22T14:03:23.077Z,7.00
2019-05-22T14:05:53.577Z,8.08
2019-05-22T14:08:23.308Z,6.60
2019-05-22T14:10:53.980Z,8.38
2019-05-22T14:13:25.676Z,7.65
2019-05-22T14:15:56.941Z,7.95
2019-05-22T14:18:25.092Z,8.75
2019-05-22T14:20:54.115Z,8.15
2019-05-22T14:23:23.108Z,7.70
2019-05-22T14:25:52.262Z,8.43
2019-05-22T14:28:22.718Z,7.70
2019-05-22T14:30:51.704Z,7.67
2019-05-22T14:33:20.440Z,7.65
2019-05-22T14:35:51.532Z,7.28
2019-05-22T14:38:20.961Z,12.00
2019-05-22T14:40:49.928Z,13.08
2019-05-22T14:43:19.190Z,12.68
2019-05-22T14:45:48.067Z,16.95
2019-05-22T14:48:16.976Z,13.03
2019-05-22T14:50:45.971Z,13.35
2019-05-22T14:53:15.301Z,14.15
2019-05-22T14:55:45.882Z,14.60
2019-05-22T14:58:16.453Z,16.05
2019-05-22T15:00:45.763Z,16.15
2019-05-22T15:03:15.017Z,17.07
2019-05-22T15:05:44.643Z,17.25
2019-05-22T15:08:13.469Z,19.65
2019-05-22T15:10:42.874Z,19.75
2019-05-22T15:13:11.701Z,19.48
2019-05-22T15:15:41.025Z,17.87
2019-05-22T15:18:11.062Z,26.15
2019-05-22T15:20:56.706Z,19.12
2019-05-22T15:23:26.025Z,19.75
2019-05-22T15:25:54.872Z,22.27
2019-05-22T15:28:26.786Z,22.65
2019-05-22T15:30:55.371Z,7.12
2019-05-22T15:33:24.766Z,8.88
2019-05-22T15:35:54.611Z,6.95
2019-05-22T15:38:23.928Z,5.87
2019-05-22T15:40:53.947Z,4.47
2019-05-22T15:43:25.003Z,4.75
2019-05-22T15:45:54.380Z,4.30
2019-05-22T15:48:30.265Z,4.72
2019-05-22T15:51:02.715Z,4.37
2019-05-22T15:53:33.587Z,4.47
2019-05-22T15:56:04.389Z,4.35
2019-05-22T15:58:35.002Z,4.55
2019-05-22T16:01:06.780Z,5.35
2019-05-22T16:03:35.543Z,4.95
2019-05-22T16:06:05.514Z,5.90
2019-05-22T16:08:34.630Z,5.53
2019-05-22T16:11:06.688Z,4.87
2019-05-22T16:13:37.176Z,4.80
2019-05-22T16:16:06.491Z,5.53
2019-05-22T16:18:36.295Z,5.55
2019-05-22T16:21:06.788Z,4.58
2019-05-22T16:23:37.517Z,4.92
2019-05-22T16:26:07.936Z,4.92
2019-05-22T16:28:39.561Z,4.72
2019-05-22T16:31:14.089Z,4.83
2019-05-22T16:33:43.850Z,4.55
2019-05-22T16:36:14.144Z,11.38
2019-05-22T16:38:44.552Z,5.92
2019-05-22T16:41:13.688Z,5.40
2019-05-22T16:43:49.619Z,5.65
2019-05-22T16:46:16.881Z,5.00
2019-05-22T16:48:48.724Z,5.17
2019-05-22T16:51:18.362Z,5.72
2019-05-22T16:53:52.148Z,5.08
2019-05-22T16:56:21.884Z,5.12
2019-05-22T16:58:51.493Z,6.67
2019-05-22T17:01:22.751Z,5.58
2019-05-22T17:03:53.927Z,6.22
2019-05-22T17:06:23.668Z,7.95
2019-05-22T17:08:53.793Z,5.58
2019-05-22T17:11:24.153Z,5.40
2019-05-22T17:13:55.145Z,5.00
2019-05-22T17:16:24.403Z,5.05
2019-05-22T17:18:53.443Z,9.35
2019-05-22T17:21:22.513Z,5.62
2019-05-22T17:23:51.978Z,5.45
2019-05-22T17:26:21.051Z,5.55
2019-05-22T17:28:50.210Z,6.08
2019-05-22T17:31:19.141Z,6.10
2019-05-22T17:33:48.080Z,6.35
2019-05-22T17:36:20.106Z,5.87
2019-05-22T17:38:49.118Z,9.43
2019-05-22T17:41:18.725Z,6.12
2019-05-22T17:43:47.743Z,5.22
2019-05-22T17:46:17.839Z,5.12
2019-05-22T17:48:47.344Z,5.45
2019-05-22T17:51:16.465Z,6.58
2019-05-22T17:53:45.481Z,6.83
2019-05-22T17:56:14.513Z,18.32
2019-05-22T17:58:43.371Z,7.42
2019-05-22T18:01:12.183Z,6.92
2019-05-22T18:03:41.401Z,6.87
2019-05-22T18:06:10.569Z,6.15
2019-05-22T18:08:39.360Z,5.72
2019-05-22T18:11:09.019Z,6.37
2019-05-22T18:13:49.694Z,6.25
2019-05-22T18:16:18.372Z,7.17
2019-05-22T18:18:47.191Z,5.75
2019-05-22T18:21:16.331Z,6.78
2019-05-22T18:23:45.055Z,6.67
2019-05-22T18:26:14.061Z,8.95
2019-05-22T18:28:43.015Z,8.15
2019-05-22T18:31:11.888Z,89.05
2019-05-22T18:33:40.696Z,7.83
2019-05-22T18:36:09.615Z,11.12
2019-05-22T18:38:38.416Z,14.07
2019-05-22T18:41:07.138Z,6.50
2019-05-22T18:43:36.643Z,6.58
2019-05-22T18:46:05.633Z,9.48
2019-05-22T18:48:34.464Z,8.03
2019-05-22T18:51:04.009Z,7.65
2019-05-22T18:53:32.999Z,7.40
2019-05-22T18:56:01.814Z,7.33
2019-05-22T18:58:30.721Z,12.07
2019-05-22T19:00:59.535Z,12.70
2019-05-22T19:03:28.466Z,12.58
2019-05-22T19:05:57.280Z,8.68
2019-05-22T19:08:26.188Z,9.00
2019-05-22T19:10:55.022Z,11.95
2019-05-22T19:13:23.775Z,11.78
2019-05-22T19:15:52.660Z,9.08
2019-05-22T19:18:21.543Z,11.28
2019-05-22T19:20:50.353Z,14.10
2019-05-22T19:23:19.085Z,21.00
2019-05-22T19:25:47.924Z,21.40
2019-05-22T19:28:16.655Z,19.15
2019-05-22T19:30:45.575Z,19.57
2019-05-22T19:33:15.171Z,18.00
2019-05-22T19:35:44.179Z,17.92
2019-05-22T19:38:13.439Z,18.12
2019-05-22T19:40:42.352Z,15.43
2019-05-22T19:43:11.893Z,15.85
2019-05-22T19:45:41.004Z,15.20
2019-05-22T19:48:10.076Z,15.13
2019-05-22T19:50:40.191Z,16.02
2019-05-22T19:53:18.619Z,15.50
2019-05-22T19:55:41.002Z,15.80
2019-05-22T19:58:10.685Z,16.40
2019-05-22T20:00:39.923Z,17.75
2019-05-22T20:03:08.716Z,19.07
2019-05-22T20:05:38.476Z,18.73
2019-05-22T20:08:07.762Z,18.37
2019-05-22T20:10:37.478Z,18.35
2019-05-22T20:13:06.493Z,17.87
2019-05-22T20:15:35.238Z,19.62
2019-05-22T20:18:05.207Z,17.65
2019-05-22T20:20:34.282Z,19.62
2019-05-22T20:23:04.262Z,18.60
2019-05-22T20:25:33.996Z,18.30
2019-05-22T20:28:03.637Z,17.85
2019-05-22T20:30:32.740Z,16.40
2019-05-22T20:33:01.545Z,17.62
2019-05-22T20:35:30.432Z,17.45
2019-05-22T20:38:00.584Z,16.37
2019-05-22T20:40:29.832Z,16.87
2019-05-22T20:42:59.376Z,16.85
2019-05-22T20:45:29.571Z,17.25
2019-05-22T20:48:11.734Z,16.77
2019-05-22T20:50:40.467Z,16.23
2019-05-22T20:53:10.992Z,17.48
2019-05-22T20:55:42.541Z,16.45
2019-05-22T20:58:13.788Z,16.77
2019-05-22T21:00:43.659Z,18.05
2019-05-22T21:03:13.373Z,16.15
2019-05-22T21:05:43.960Z,14.68
2019-05-22T21:08:13.468Z,16.37
2019-05-22T21:10:47.555Z,15.93
2019-05-22T21:13:16.880Z,16.32
2019-05-22T21:15:46.712Z,16.50
2019-05-22T21:18:17.279Z,15.72
2019-05-22T21:20:54.822Z,16.60
2019-05-22T21:23:19.520Z,14.87
2019-05-22T21:25:48.739Z,15.48
2019-05-22T21:28:18.920Z,16.42
2019-05-22T21:30:47.718Z,16.55
2019-05-22T21:33:17.248Z,15.85
2019-05-22T21:35:45.984Z,16.23
2019-05-22T21:38:16.480Z,15.85
2019-05-22T21:40:45.617Z,17.20
2019-05-22T21:43:15.403Z,17.27
2019-05-22T21:45:44.523Z,17.20
2019-05-22T21:48:13.639Z,18.27
2019-05-22T21:50:42.905Z,18.00
2019-05-22T21:53:12.606Z,18.95
2019-05-22T21:55:45.419Z,18.73
2019-05-22T21:58:12.933Z,19.80
2019-05-22T22:00:48.596Z,18.70
2019-05-22T22:03:19.465Z,18.87
2019-05-22T22:05:48.267Z,23.15
2019-05-22T22:08:16.983Z,22.98
2019-05-22T22:10:46.282Z,22.10
2019-05-22T22:13:15.201Z,24.45
2019-05-22T22:15:44.398Z,23.92
2019-05-22T22:18:13.231Z,24.40
2019-05-22T22:20:43.553Z,26.70
2019-05-22T22:23:14.655Z,25.80
2019-05-22T22:25:44.047Z,26.00
2019-05-22T22:28:15.694Z,27.85
2019-05-22T22:30:58.901Z,25.62
2019-05-22T22:33:31.384Z,26.93
2019-05-22T22:36:01.826Z,26.55
2019-05-22T22:38:32.921Z,28.32
2019-05-22T22:41:02.535Z,28.12
2019-05-22T22:43:33.068Z,28.23
2019-05-22T22:46:10.771Z,29.65
2019-05-22T22:48:40.569Z,29.95
2019-05-22T22:51:12.608Z,29.30
2019-05-22T22:53:43.704Z,30.05
2019-05-22T22:56:13.098Z,28.30
2019-05-22T22:58:42.495Z,29.50
2019-05-22T23:01:15.689Z,29.60
2019-05-22T23:03:47.900Z,28.40
2019-05-22T23:06:16.980Z,28.85
2019-05-22T23:08:47.872Z,29.87
2019-05-22T23:11:17.175Z,29.52
2019-05-22T23:13:46.079Z,29.15
2019-05-22T23:16:15.887Z,30.43
2019-05-22T23:19:02.576Z,30.20
2019-05-22T23:21:30.356Z,28.98
2019-05-22T23:23:58.552Z,29.40
2019-05-22T23:26:27.599Z,29.20
2019-05-22T23:28:56.375Z,28.60
2019-05-22T23:31:25.100Z,29.45
2019-05-22T23:33:53.838Z,28.55
2019-05-22T23:36:22.967Z,28.85
2019-05-22T23:38:52.383Z,28.77
2019-05-22T23:41:21.632Z,27.10
2019-05-22T23:43:50.931Z,26.60
2019-05-22T23:46:20.650Z,25.85
2019-05-22T23:48:49.579Z,26.65
2019-05-22T23:51:18.887Z,27.60
2019-05-22T23:53:48.579Z,26.85
2019-05-22T23:56:17.399Z,27.15
2019-05-22T23:58:52.913Z,25.15
